sensor_id;sensor_type;location;lat;lon;timestamp;P1;durP1;ratioP1;P2;durP2;ratioP2
41881;SDS011;27562;47.524;12.404;2023-09-19T00:02:23;1.98;;;0.98;;
41881;SDS011;27562;47.524;12.404;2023-09-19T00:04:48;2.10;;;1.00;;
41881;SDS011;27562;47.524;12.404;2023-09-19T00:07:15;3.55;;;1.10;;
41881;SDS011;27562;47.524;12.404;2023-09-19T00:09:41;1.90;;;0.90;;
41881;SDS011;27562;47.524;12.404;2023-09-19T00:12:09;2.08;;;0.88;;
41881;SDS011;27562;47.524;12.404;2023-09-19T00:14:35;2.10;;;1.10;;
41881;SDS011;27562;47.524;12.404;2023-09-19T00:17:03;2.65;;;1.00;;
41881;SDS011;27562;47.524;12.404;2023-09-19T00:19:32;4.70;;;1.10;;
41881;SDS011;27562;47.524;12.404;2023-09-19T00:21:58;2.53;;;1.35;;
41881;SDS011;27562;47.524;12.404;2023-09-19T00:24:23;1.60;;;0.88;;
41881;SDS011;27562;47.524;12.404;2023-09-19T00:26:49;1.33;;;0.82;;
41881;SDS011;27562;47.524;12.404;2023-09-19T00:29:15;2.92;;;1.10;;
41881;SDS011;27562;47.524;12.404;2023-09-19T00:31:44;3.03;;;1.35;;
41881;SDS011;27562;47.524;12.404;2023-09-19T00:34:10;3.45;;;1.27;;
41881;SDS011;27562;47.524;12.404;2023-09-19T00:36:38;2.13;;;0.98;;
41881;SDS011;27562;47.524;12.404;2023-09-19T00:39:05;2.60;;;1.10;;
41881;SDS011;27562;47.524;12.404;2023-09-19T00:41:34;2.15;;;1.10;;
41881;SDS011;27562;47.524;12.404;2023-09-19T00:44:03;3.88;;;1.20;;
41881;SDS011;27562;47.524;12.404;2023-09-19T00:46:29;2.17;;;1.27;;
41881;SDS011;27562;47.524;12.404;2023-09-19T00:48:57;3.08;;;1.38;;
41881;SDS011;27562;47.524;12.404;2023-09-19T00:51:24;2.53;;;1.27;;
41881;SDS011;27562;47.524;12.404;2023-09-19T00:53:51;3.90;;;1.40;;
41881;SDS011;27562;47.524;12.404;2023-09-19T00:56:17;1.42;;;0.90;;
41881;SDS011;27562;47.524;12.404;2023-09-19T00:58:46;3.10;;;0.98;;
41881;SDS011;27562;47.524;12.404;2023-09-19T01:01:13;1.90;;;1.05;;
41881;SDS011;27562;47.524;12.404;2023-09-19T01:03:42;1.95;;;1.08;;
41881;SDS011;27562;47.524;12.404;2023-09-19T01:06:09;2.70;;;1.10;;
41881;SDS011;27562;47.524;12.404;2023-09-19T01:08:35;3.28;;;1.23;;
41881;SDS011;27562;47.524;12.404;2023-09-19T01:11:21;2.95;;;1.58;;
41881;SDS011;27562;47.524;12.404;2023-09-19T01:16:53;2.13;;;1.00;;
41881;SDS011;27562;47.524;12.404;2023-09-19T01:30:24;2.42;;;1.27;;
41881;SDS011;27562;47.524;12.404;2023-09-19T01:32:54;2.22;;;1.10;;
41881;SDS011;27562;47.524;12.404;2023-09-19T01:35:20;1.83;;;1.00;;
41881;SDS011;27562;47.524;12.404;2023-09-19T01:37:46;2.17;;;1.08;;
41881;SDS011;27562;47.524;12.404;2023-09-19T01:40:12;2.60;;;1.30;;
41881;SDS011;27562;47.524;12.404;2023-09-19T01:42:58;2.50;;;1.30;;
41881;SDS011;27562;47.524;12.404;2023-09-19T01:48:19;2.63;;;1.10;;
41881;SDS011;27562;47.524;12.404;2023-09-19T01:51:01;2.20;;;1.00;;
41881;SDS011;27562;47.524;12.404;2023-09-19T01:53:35;2.50;;;1.08;;
41881;SDS011;27562;47.524;12.404;2023-09-19T01:56:07;1.40;;;0.75;;
41881;SDS011;27562;47.524;12.404;2023-09-19T01:58:38;3.38;;;0.85;;
41881;SDS011;27562;47.524;12.404;2023-09-19T02:01:08;1.75;;;0.90;;
41881;SDS011;27562;47.524;12.404;2023-09-19T02:03:38;2.53;;;1.30;;
41881;SDS011;27562;47.524;12.404;2023-09-19T02:06:05;3.22;;;1.60;;
41881;SDS011;27562;47.524;12.404;2023-09-19T02:08:36;4.63;;;1.58;;
41881;SDS011;27562;47.524;12.404;2023-09-19T02:11:02;2.55;;;1.38;;
41881;SDS011;27562;47.524;12.404;2023-09-19T02:13:28;3.00;;;1.73;;
41881;SDS011;27562;47.524;12.404;2023-09-19T02:15:55;5.57;;;2.65;;
41881;SDS011;27562;47.524;12.404;2023-09-19T02:18:21;4.47;;;2.42;;
41881;SDS011;27562;47.524;12.404;2023-09-19T02:20:47;4.93;;;2.70;;
41881;SDS011;27562;47.524;12.404;2023-09-19T02:23:17;5.65;;;2.78;;
41881;SDS011;27562;47.524;12.404;2023-09-19T02:25:51;4.18;;;2.58;;
41881;SDS011;27562;47.524;12.404;2023-09-19T02:28:20;3.22;;;2.03;;
41881;SDS011;27562;47.524;12.404;2023-09-19T02:30:48;3.72;;;2.00;;
41881;SDS011;27562;47.524;12.404;2023-09-19T02:33:14;2.58;;;1.58;;
41881;SDS011;27562;47.524;12.404;2023-09-19T02:35:40;2.50;;;1.55;;
41881;SDS011;27562;47.524;12.404;2023-09-19T02:38:05;2.85;;;1.80;;
41881;SDS011;27562;47.524;12.404;2023-09-19T02:40:36;3.45;;;1.55;;
41881;SDS011;27562;47.524;12.404;2023-09-19T02:43:02;3.53;;;1.80;;
41881;SDS011;27562;47.524;12.404;2023-09-19T02:45:28;2.95;;;1.38;;
41881;SDS011;27562;47.524;12.404;2023-09-19T02:47:55;4.47;;;1.60;;
41881;SDS011;27562;47.524;12.404;2023-09-19T02:50:21;3.00;;;1.50;;
41881;SDS011;27562;47.524;12.404;2023-09-19T02:52:47;3.03;;;1.40;;
41881;SDS011;27562;47.524;12.404;2023-09-19T02:55:16;3.17;;;1.50;;
41881;SDS011;27562;47.524;12.404;2023-09-19T02:57:53;2.95;;;1.60;;
41881;SDS011;27562;47.524;12.404;2023-09-19T03:00:22;2.15;;;1.20;;
41881;SDS011;27562;47.524;12.404;2023-09-19T03:02:49;2.42;;;1.15;;
41881;SDS011;27562;47.524;12.404;2023-09-19T03:05:19;3.50;;;1.23;;
41881;SDS011;27562;47.524;12.404;2023-09-19T03:07:46;1.98;;;1.10;;
41881;SDS011;27562;47.524;12.404;2023-09-19T03:10:15;3.25;;;1.30;;
41881;SDS011;27562;47.524;12.404;2023-09-19T03:12:41;3.55;;;1.30;;
41881;SDS011;27562;47.524;12.404;2023-09-19T03:15:07;2.95;;;1.40;;
41881;SDS011;27562;47.524;12.404;2023-09-19T03:17:33;2.08;;;1.30;;
41881;SDS011;27562;47.524;12.404;2023-09-19T03:20:00;3.25;;;1.20;;
41881;SDS011;27562;47.524;12.404;2023-09-19T03:22:26;2.70;;;1.30;;
41881;SDS011;27562;47.524;12.404;2023-09-19T03:24:52;2.75;;;1.35;;
41881;SDS011;27562;47.524;12.404;2023-09-19T03:27:18;2.42;;;1.65;;
41881;SDS011;27562;47.524;12.404;2023-09-19T03:29:45;3.00;;;1.50;;
41881;SDS011;27562;47.524;12.404;2023-09-19T03:32:11;3.47;;;1.42;;
41881;SDS011;27562;47.524;12.404;2023-09-19T03:34:37;3.08;;;1.33;;
41881;SDS011;27562;47.524;12.404;2023-09-19T03:37:08;2.65;;;1.80;;
41881;SDS011;27562;47.524;12.404;2023-09-19T03:39:34;3.97;;;1.70;;
41881;SDS011;27562;47.524;12.404;2023-09-19T03:42:00;3.28;;;1.65;;
41881;SDS011;27562;47.524;12.404;2023-09-19T03:44:28;3.15;;;1.35;;
41881;SDS011;27562;47.524;12.404;2023-09-19T03:46:56;2.00;;;1.15;;
41881;SDS011;27562;47.524;12.404;2023-09-19T03:49:22;2.13;;;1.00;;
41881;SDS011;27562;47.524;12.404;2023-09-19T03:51:48;3.42;;;1.65;;
41881;SDS011;27562;47.524;12.404;2023-09-19T03:54:14;1.90;;;1.17;;
41881;SDS011;27562;47.524;12.404;2023-09-19T03:56:42;3.47;;;1.70;;
41881;SDS011;27562;47.524;12.404;2023-09-19T03:59:08;2.90;;;1.38;;
41881;SDS011;27562;47.524;12.404;2023-09-19T04:01:34;2.90;;;1.30;;
41881;SDS011;27562;47.524;12.404;2023-09-19T04:04:00;3.33;;;1.40;;
41881;SDS011;27562;47.524;12.404;2023-09-19T04:06:33;6.35;;;1.42;;
41881;SDS011;27562;47.524;12.404;2023-09-19T04:09:02;2.83;;;1.25;;
41881;SDS011;27562;47.524;12.404;2023-09-19T04:11:29;3.28;;;1.73;;
41881;SDS011;27562;47.524;12.404;2023-09-19T04:13:55;3.67;;;1.45;;
41881;SDS011;27562;47.524;12.404;2023-09-19T04:16:21;2.50;;;1.20;;
41881;SDS011;27562;47.524;12.404;2023-09-19T04:18:47;4.38;;;1.90;;
41881;SDS011;27562;47.524;12.404;2023-09-19T04:21:13;4.85;;;1.75;;
41881;SDS011;27562;47.524;12.404;2023-09-19T04:23:39;2.88;;;1.65;;
41881;SDS011;27562;47.524;12.404;2023-09-19T04:26:04;3.50;;;2.05;;
41881;SDS011;27562;47.524;12.404;2023-09-19T04:28:31;4.75;;;2.30;;
41881;SDS011;27562;47.524;12.404;2023-09-19T04:30:59;5.13;;;2.38;;
41881;SDS011;27562;47.524;12.404;2023-09-19T04:33:25;4.13;;;1.80;;
41881;SDS011;27562;47.524;12.404;2023-09-19T04:35:54;3.50;;;1.52;;
41881;SDS011;27562;47.524;12.404;2023-09-19T04:38:21;2.97;;;1.75;;
41881;SDS011;27562;47.524;12.404;2023-09-19T04:40:47;2.95;;;1.45;;
41881;SDS011;27562;47.524;12.404;2023-09-19T04:43:13;2.85;;;1.42;;
41881;SDS011;27562;47.524;12.404;2023-09-19T04:45:38;2.95;;;1.40;;
41881;SDS011;27562;47.524;12.404;2023-09-19T04:48:05;2.67;;;1.27;;
41881;SDS011;27562;47.524;12.404;2023-09-19T04:50:34;3.85;;;1.42;;
41881;SDS011;27562;47.524;12.404;2023-09-19T04:53:00;3.17;;;1.33;;
41881;SDS011;27562;47.524;12.404;2023-09-19T04:55:26;3.17;;;1.45;;
41881;SDS011;27562;47.524;12.404;2023-09-19T04:57:52;3.25;;;1.45;;
41881;SDS011;27562;47.524;12.404;2023-09-19T05:00:22;2.17;;;1.20;;
41881;SDS011;27562;47.524;12.404;2023-09-19T05:02:54;3.05;;;1.63;;
41881;SDS011;27562;47.524;12.404;2023-09-19T05:05:23;2.35;;;1.25;;
41881;SDS011;27562;47.524;12.404;2023-09-19T05:07:50;3.45;;;1.40;;
41881;SDS011;27562;47.524;12.404;2023-09-19T05:10:19;2.50;;;1.60;;
41881;SDS011;27562;47.524;12.404;2023-09-19T05:12:45;19.40;;;8.73;;
41881;SDS011;27562;47.524;12.404;2023-09-19T05:15:12;19.95;;;9.18;;
41881;SDS011;27562;47.524;12.404;2023-09-19T05:17:39;23.65;;;10.30;;
41881;SDS011;27562;47.524;12.404;2023-09-19T05:20:05;26.40;;;11.60;;
41881;SDS011;27562;47.524;12.404;2023-09-19T05:22:39;16.17;;;8.20;;
41881;SDS011;27562;47.524;12.404;2023-09-19T05:25:06;13.63;;;6.25;;
41881;SDS011;27562;47.524;12.404;2023-09-19T05:27:32;8.82;;;3.85;;
41881;SDS011;27562;47.524;12.404;2023-09-19T05:29:58;6.32;;;3.20;;
41881;SDS011;27562;47.524;12.404;2023-09-19T05:32:24;5.35;;;2.60;;
41881;SDS011;27562;47.524;12.404;2023-09-19T05:34:50;3.83;;;2.25;;
41881;SDS011;27562;47.524;12.404;2023-09-19T05:37:21;5.53;;;2.58;;
41881;SDS011;27562;47.524;12.404;2023-09-19T05:39:48;4.78;;;2.60;;
41881;SDS011;27562;47.524;12.404;2023-09-19T05:42:14;4.32;;;2.33;;
41881;SDS011;27562;47.524;12.404;2023-09-19T05:44:39;4.65;;;2.13;;
41881;SDS011;27562;47.524;12.404;2023-09-19T05:47:05;3.85;;;2.15;;
41881;SDS011;27562;47.524;12.404;2023-09-19T05:49:34;2.88;;;1.60;;
41881;SDS011;27562;47.524;12.404;2023-09-19T05:52:03;3.72;;;1.70;;
41881;SDS011;27562;47.524;12.404;2023-09-19T05:54:30;2.80;;;1.65;;
41881;SDS011;27562;47.524;12.404;2023-09-19T05:56:56;3.05;;;1.50;;
41881;SDS011;27562;47.524;12.404;2023-09-19T05:59:23;3.50;;;1.77;;
41881;SDS011;27562;47.524;12.404;2023-09-19T06:01:49;3.90;;;1.77;;
41881;SDS011;27562;47.524;12.404;2023-09-19T06:04:14;2.75;;;1.40;;
41881;SDS011;27562;47.524;12.404;2023-09-19T06:06:40;2.50;;;1.65;;
41881;SDS011;27562;47.524;12.404;2023-09-19T06:09:06;2.85;;;1.42;;
41881;SDS011;27562;47.524;12.404;2023-09-19T06:11:35;2.88;;;1.90;;
41881;SDS011;27562;47.524;12.404;2023-09-19T06:14:01;3.72;;;1.70;;
41881;SDS011;27562;47.524;12.404;2023-09-19T06:16:28;3.95;;;1.45;;
41881;SDS011;27562;47.524;12.404;2023-09-19T06:18:54;3.22;;;1.95;;
41881;SDS011;27562;47.524;12.404;2023-09-19T06:21:21;3.47;;;1.52;;
41881;SDS011;27562;47.524;12.404;2023-09-19T06:23:48;1.90;;;1.20;;
41881;SDS011;27562;47.524;12.404;2023-09-19T06:26:14;2.10;;;1.30;;
41881;SDS011;27562;47.524;12.404;2023-09-19T06:28:40;2.40;;;1.38;;
41881;SDS011;27562;47.524;12.404;2023-09-19T06:31:07;2.65;;;1.60;;
41881;SDS011;27562;47.524;12.404;2023-09-19T06:33:35;4.00;;;1.80;;
41881;SDS011;27562;47.524;12.404;2023-09-19T06:36:04;3.40;;;1.65;;
41881;SDS011;27562;47.524;12.404;2023-09-19T06:38:32;3.08;;;2.00;;
41881;SDS011;27562;47.524;12.404;2023-09-19T06:41:04;3.85;;;1.60;;
41881;SDS011;27562;47.524;12.404;2023-09-19T06:43:30;4.30;;;1.85;;
41881;SDS011;27562;47.524;12.404;2023-09-19T06:45:56;3.45;;;2.10;;
41881;SDS011;27562;47.524;12.404;2023-09-19T06:48:22;5.25;;;1.80;;
41881;SDS011;27562;47.524;12.404;2023-09-19T06:50:50;2.95;;;1.77;;
41881;SDS011;27562;47.524;12.404;2023-09-19T06:53:16;4.63;;;2.03;;
41881;SDS011;27562;47.524;12.404;2023-09-19T06:55:42;4.70;;;2.38;;
41881;SDS011;27562;47.524;12.404;2023-09-19T06:58:09;4.90;;;2.05;;
41881;SDS011;27562;47.524;12.404;2023-09-19T07:00:35;3.90;;;1.67;;
41881;SDS011;27562;47.524;12.404;2023-09-19T07:05:31;3.08;;;1.60;;
41881;SDS011;27562;47.524;12.404;2023-09-19T07:07:57;3.28;;;1.70;;
41881;SDS011;27562;47.524;12.404;2023-09-19T07:10:26;4.82;;;1.95;;
41881;SDS011;27562;47.524;12.404;2023-09-19T07:13:03;3.83;;;1.98;;
41881;SDS011;27562;47.524;12.404;2023-09-19T07:15:32;2.90;;;1.90;;
41881;SDS011;27562;47.524;12.404;2023-09-19T07:18:04;4.90;;;2.22;;
41881;SDS011;27562;47.524;12.404;2023-09-19T07:20:30;3.70;;;2.45;;
41881;SDS011;27562;47.524;12.404;2023-09-19T07:22:57;3.92;;;2.42;;
41881;SDS011;27562;47.524;12.404;2023-09-19T07:25:29;4.25;;;2.97;;
41881;SDS011;27562;47.524;12.404;2023-09-19T07:27:56;5.82;;;3.47;;
41881;SDS011;27562;47.524;12.404;2023-09-19T07:30:24;4.47;;;2.15;;
41881;SDS011;27562;47.524;12.404;2023-09-19T07:32:51;3.63;;;2.25;;
41881;SDS011;27562;47.524;12.404;2023-09-19T07:35:17;5.85;;;3.53;;
41881;SDS011;27562;47.524;12.404;2023-09-19T07:37:47;6.88;;;3.15;;
41881;SDS011;27562;47.524;12.404;2023-09-19T07:40:21;4.13;;;2.47;;
41881;SDS011;27562;47.524;12.404;2023-09-19T07:42:48;3.88;;;1.92;;
41881;SDS011;27562;47.524;12.404;2023-09-19T07:45:15;4.07;;;2.55;;
41881;SDS011;27562;47.524;12.404;2023-09-19T07:47:48;4.55;;;3.10;;
41881;SDS011;27562;47.524;12.404;2023-09-19T07:50:15;5.90;;;2.95;;
41881;SDS011;27562;47.524;12.404;2023-09-19T07:52:43;6.45;;;3.22;;
41881;SDS011;27562;47.524;12.404;2023-09-19T07:55:09;5.40;;;3.00;;
41881;SDS011;27562;47.524;12.404;2023-09-19T07:57:41;4.82;;;3.10;;
41881;SDS011;27562;47.524;12.404;2023-09-19T08:00:08;4.28;;;2.70;;
41881;SDS011;27562;47.524;12.404;2023-09-19T08:02:37;4.32;;;2.20;;
41881;SDS011;27562;47.524;12.404;2023-09-19T08:05:05;5.43;;;2.10;;
41881;SDS011;27562;47.524;12.404;2023-09-19T08:07:34;4.15;;;2.08;;
41881;SDS011;27562;47.524;12.404;2023-09-19T08:10:04;5.63;;;2.70;;
41881;SDS011;27562;47.524;12.404;2023-09-19T08:12:33;4.40;;;1.75;;
41881;SDS011;27562;47.524;12.404;2023-09-19T08:15:01;2.35;;;1.40;;
41881;SDS011;27562;47.524;12.404;2023-09-19T08:17:28;2.78;;;1.55;;
41881;SDS011;27562;47.524;12.404;2023-09-19T08:19:54;5.10;;;1.80;;
41881;SDS011;27562;47.524;12.404;2023-09-19T08:22:20;4.95;;;2.40;;
41881;SDS011;27562;47.524;12.404;2023-09-19T08:24:46;7.63;;;3.95;;
41881;SDS011;27562;47.524;12.404;2023-09-19T08:27:12;6.93;;;4.05;;
41881;SDS011;27562;47.524;12.404;2023-09-19T08:29:38;6.53;;;4.03;;
41881;SDS011;27562;47.524;12.404;2023-09-19T08:32:04;6.40;;;3.30;;
41881;SDS011;27562;47.524;12.404;2023-09-19T08:34:30;7.22;;;4.38;;
41881;SDS011;27562;47.524;12.404;2023-09-19T08:36:58;8.02;;;3.92;;
41881;SDS011;27562;47.524;12.404;2023-09-19T08:39:24;5.00;;;3.10;;
41881;SDS011;27562;47.524;12.404;2023-09-19T08:41:57;4.22;;;2.88;;
41881;SDS011;27562;47.524;12.404;2023-09-19T08:44:24;8.60;;;4.38;;
41881;SDS011;27562;47.524;12.404;2023-09-19T08:46:50;5.90;;;3.85;;
41881;SDS011;27562;47.524;12.404;2023-09-19T08:49:36;7.57;;;4.18;;
41881;SDS011;27562;47.524;12.404;2023-09-19T08:52:27;5.13;;;3.35;;
41881;SDS011;27562;47.524;12.404;2023-09-19T08:54:59;6.88;;;2.80;;
41881;SDS011;27562;47.524;12.404;2023-09-19T08:57:29;3.30;;;2.20;;
41881;SDS011;27562;47.524;12.404;2023-09-19T09:00:02;3.72;;;2.20;;
41881;SDS011;27562;47.524;12.404;2023-09-19T09:02:39;3.92;;;2.40;;
41881;SDS011;27562;47.524;12.404;2023-09-19T09:05:07;4.10;;;2.20;;
41881;SDS011;27562;47.524;12.404;2023-09-19T09:07:42;4.80;;;2.33;;
41881;SDS011;27562;47.524;12.404;2023-09-19T09:10:09;5.22;;;2.00;;
41881;SDS011;27562;47.524;12.404;2023-09-19T09:12:35;5.15;;;2.80;;
41881;SDS011;27562;47.524;12.404;2023-09-19T09:15:06;6.82;;;3.08;;
41881;SDS011;27562;47.524;12.404;2023-09-19T09:17:33;3.72;;;2.50;;
41881;SDS011;27562;47.524;12.404;2023-09-19T09:19:59;4.15;;;2.35;;
41881;SDS011;27562;47.524;12.404;2023-09-19T09:22:25;5.97;;;3.05;;
41881;SDS011;27562;47.524;12.404;2023-09-19T09:24:55;5.80;;;4.07;;
41881;SDS011;27562;47.524;12.404;2023-09-19T09:27:28;6.65;;;4.53;;
41881;SDS011;27562;47.524;12.404;2023-09-19T09:29:54;7.45;;;4.38;;
41881;SDS011;27562;47.524;12.404;2023-09-19T09:34:56;4.47;;;3.05;;
41881;SDS011;27562;47.524;12.404;2023-09-19T09:37:23;8.20;;;4.40;;
41881;SDS011;27562;47.524;12.404;2023-09-19T09:39:55;6.88;;;4.82;;
41881;SDS011;27562;47.524;12.404;2023-09-19T09:42:30;7.25;;;4.75;;
41881;SDS011;27562;47.524;12.404;2023-09-19T09:47:57;7.30;;;3.30;;
41881;SDS011;27562;47.524;12.404;2023-09-19T09:50:29;5.75;;;3.88;;
41881;SDS011;27562;47.524;12.404;2023-09-19T09:53:28;4.82;;;2.95;;
41881;SDS011;27562;47.524;12.404;2023-09-19T09:55:58;3.83;;;2.15;;
41881;SDS011;27562;47.524;12.404;2023-09-19T09:58:30;4.63;;;1.40;;
41881;SDS011;27562;47.524;12.404;2023-09-19T10:01:00;2.33;;;1.23;;
41881;SDS011;27562;47.524;12.404;2023-09-19T10:03:40;4.32;;;1.25;;
41881;SDS011;27562;47.524;12.404;2023-09-19T10:06:10;2.58;;;1.10;;
41881;SDS011;27562;47.524;12.404;2023-09-19T10:11:33;2.13;;;1.10;;
41881;SDS011;27562;47.524;12.404;2023-09-19T10:14:02;3.13;;;1.30;;
41881;SDS011;27562;47.524;12.404;2023-09-19T10:16:31;2.25;;;1.30;;
41881;SDS011;27562;47.524;12.404;2023-09-19T10:18:59;2.85;;;1.40;;
41881;SDS011;27562;47.524;12.404;2023-09-19T10:21:28;3.83;;;1.38;;
41881;SDS011;27562;47.524;12.404;2023-09-19T10:23:55;3.47;;;1.50;;
41881;SDS011;27562;47.524;12.404;2023-09-19T10:26:26;3.28;;;1.70;;
41881;SDS011;27562;47.524;12.404;2023-09-19T10:28:57;2.08;;;1.20;;
41881;SDS011;27562;47.524;12.404;2023-09-19T10:31:26;3.20;;;1.30;;
41881;SDS011;27562;47.524;12.404;2023-09-19T10:33:53;2.33;;;1.30;;
41881;SDS011;27562;47.524;12.404;2023-09-19T10:36:21;2.03;;;1.10;;
41881;SDS011;27562;47.524;12.404;2023-09-19T10:38:52;1.92;;;1.08;;
41881;SDS011;27562;47.524;12.404;2023-09-19T10:41:21;1.85;;;0.90;;
41881;SDS011;27562;47.524;12.404;2023-09-19T10:43:48;2.03;;;0.90;;
41881;SDS011;27562;47.524;12.404;2023-09-19T10:46:14;2.20;;;0.98;;
41881;SDS011;27562;47.524;12.404;2023-09-19T10:48:40;1.80;;;0.90;;
41881;SDS011;27562;47.524;12.404;2023-09-19T10:56:44;3.00;;;1.00;;
41881;SDS011;27562;47.524;12.404;2023-09-19T10:59:17;1.58;;;0.82;;
41881;SDS011;27562;47.524;12.404;2023-09-19T11:04:23;1.65;;;0.90;;
41881;SDS011;27562;47.524;12.404;2023-09-19T11:07:10;2.20;;;0.90;;
41881;SDS011;27562;47.524;12.404;2023-09-19T11:12:11;1.50;;;0.88;;
41881;SDS011;27562;47.524;12.404;2023-09-19T11:14:38;1.67;;;0.88;;
41881;SDS011;27562;47.524;12.404;2023-09-19T11:30:33;1.88;;;1.05;;
41881;SDS011;27562;47.524;12.404;2023-09-19T11:36:04;2.05;;;1.00;;
41881;SDS011;27562;47.524;12.404;2023-09-19T11:39:03;2.72;;;1.10;;
41881;SDS011;27562;47.524;12.404;2023-09-19T11:43:52;2.53;;;1.17;;
41881;SDS011;27562;47.524;12.404;2023-09-19T11:46:20;2.80;;;1.30;;
41881;SDS011;27562;47.524;12.404;2023-09-19T11:48:50;2.55;;;1.17;;
41881;SDS011;27562;47.524;12.404;2023-09-19T11:51:17;3.07;;;1.30;;
41881;SDS011;27562;47.524;12.404;2023-09-19T11:53:48;2.22;;;1.08;;
41881;SDS011;27562;47.524;12.404;2023-09-19T11:56:38;2.83;;;0.80;;
41881;SDS011;27562;47.524;12.404;2023-09-19T11:59:06;2.13;;;0.90;;
41881;SDS011;27562;47.524;12.404;2023-09-19T12:01:33;2.22;;;1.05;;
41881;SDS011;27562;47.524;12.404;2023-09-19T12:04:01;1.65;;;0.90;;
41881;SDS011;27562;47.524;12.404;2023-09-19T12:06:29;1.40;;;0.70;;
41881;SDS011;27562;47.524;12.404;2023-09-19T12:08:57;1.58;;;0.75;;
41881;SDS011;27562;47.524;12.404;2023-09-19T12:11:28;2.53;;;1.30;;
41881;SDS011;27562;47.524;12.404;2023-09-19T12:13:58;1.88;;;0.70;;
41881;SDS011;27562;47.524;12.404;2023-09-19T12:16:26;2.72;;;0.70;;
41881;SDS011;27562;47.524;12.404;2023-09-19T12:18:55;2.10;;;0.75;;
41881;SDS011;27562;47.524;12.404;2023-09-19T12:21:23;1.27;;;0.73;;
41881;SDS011;27562;47.524;12.404;2023-09-19T12:23:58;2.38;;;0.70;;
41881;SDS011;27562;47.524;12.404;2023-09-19T12:26:41;3.08;;;0.98;;
41881;SDS011;27562;47.524;12.404;2023-09-19T12:29:12;1.33;;;0.70;;
41881;SDS011;27562;47.524;12.404;2023-09-19T12:34:28;1.15;;;0.60;;
41881;SDS011;27562;47.524;12.404;2023-09-19T12:37:12;1.30;;;0.60;;
41881;SDS011;27562;47.524;12.404;2023-09-19T12:39:52;2.75;;;0.73;;
41881;SDS011;27562;47.524;12.404;2023-09-19T12:42:23;2.17;;;0.93;;
41881;SDS011;27562;47.524;12.404;2023-09-19T12:44:53;2.65;;;0.80;;
41881;SDS011;27562;47.524;12.404;2023-09-19T12:47:23;1.42;;;0.65;;
41881;SDS011;27562;47.524;12.404;2023-09-19T12:55:23;2.03;;;0.55;;
41881;SDS011;27562;47.524;12.404;2023-09-19T13:00:43;1.27;;;0.50;;
41881;SDS011;27562;47.524;12.404;2023-09-19T13:05:47;1.92;;;0.70;;
41881;SDS011;27562;47.524;12.404;2023-09-19T13:08:20;1.42;;;0.52;;
41881;SDS011;27562;47.524;12.404;2023-09-19T13:11:04;2.28;;;0.60;;
41881;SDS011;27562;47.524;12.404;2023-09-19T13:13:35;1.55;;;0.70;;
41881;SDS011;27562;47.524;12.404;2023-09-19T13:16:05;1.88;;;0.50;;
41881;SDS011;27562;47.524;12.404;2023-09-19T13:18:50;0.50;;;0.30;;
41881;SDS011;27562;47.524;12.404;2023-09-19T13:21:26;1.20;;;0.38;;
41881;SDS011;27562;47.524;12.404;2023-09-19T13:24:21;0.85;;;0.60;;
41881;SDS011;27562;47.524;12.404;2023-09-19T13:26:51;0.95;;;0.40;;
41881;SDS011;27562;47.524;12.404;2023-09-19T13:29:16;3.15;;;0.50;;
41881;SDS011;27562;47.524;12.404;2023-09-19T13:31:46;1.05;;;0.50;;
41881;SDS011;27562;47.524;12.404;2023-09-19T13:34:13;0.90;;;0.30;;
41881;SDS011;27562;47.524;12.404;2023-09-19T13:36:41;2.13;;;0.55;;
41881;SDS011;27562;47.524;12.404;2023-09-19T13:39:07;1.80;;;0.52;;
41881;SDS011;27562;47.524;12.404;2023-09-19T13:41:34;3.28;;;0.60;;
41881;SDS011;27562;47.524;12.404;2023-09-19T13:44:02;0.70;;;0.40;;
41881;SDS011;27562;47.524;12.404;2023-09-19T13:46:29;2.65;;;0.60;;
41881;SDS011;27562;47.524;12.404;2023-09-19T13:48:58;1.35;;;0.60;;
41881;SDS011;27562;47.524;12.404;2023-09-19T13:51:25;0.98;;;0.52;;
41881;SDS011;27562;47.524;12.404;2023-09-19T13:53:51;0.90;;;0.38;;
41881;SDS011;27562;47.524;12.404;2023-09-19T13:56:17;1.13;;;0.50;;
41881;SDS011;27562;47.524;12.404;2023-09-19T13:58:43;0.80;;;0.60;;
41881;SDS011;27562;47.524;12.404;2023-09-19T14:01:09;1.27;;;0.60;;
41881;SDS011;27562;47.524;12.404;2023-09-19T14:03:37;1.23;;;0.60;;
41881;SDS011;27562;47.524;12.404;2023-09-19T14:06:18;1.63;;;0.60;;
41881;SDS011;27562;47.524;12.404;2023-09-19T14:08:44;2.33;;;0.60;;
41881;SDS011;27562;47.524;12.404;2023-09-19T14:11:13;1.50;;;0.45;;
41881;SDS011;27562;47.524;12.404;2023-09-19T14:13:39;1.00;;;0.50;;
41881;SDS011;27562;47.524;12.404;2023-09-19T14:16:06;1.55;;;0.68;;
41881;SDS011;27562;47.524;12.404;2023-09-19T14:18:33;1.17;;;0.57;;
41881;SDS011;27562;47.524;12.404;2023-09-19T14:21:06;2.83;;;0.70;;
41881;SDS011;27562;47.524;12.404;2023-09-19T14:23:40;1.42;;;0.60;;
41881;SDS011;27562;47.524;12.404;2023-09-19T14:26:09;1.67;;;0.75;;
41881;SDS011;27562;47.524;12.404;2023-09-19T14:28:34;1.48;;;0.77;;
41881;SDS011;27562;47.524;12.404;2023-09-19T14:31:04;2.40;;;0.70;;
41881;SDS011;27562;47.524;12.404;2023-09-19T14:33:34;1.58;;;0.80;;
41881;SDS011;27562;47.524;12.404;2023-09-19T14:36:06;2.40;;;0.75;;
41881;SDS011;27562;47.524;12.404;2023-09-19T14:38:34;1.70;;;0.70;;
41881;SDS011;27562;47.524;12.404;2023-09-19T14:41:04;1.02;;;0.60;;
41881;SDS011;27562;47.524;12.404;2023-09-19T14:43:31;1.10;;;0.57;;
41881;SDS011;27562;47.524;12.404;2023-09-19T14:46:06;1.30;;;0.60;;
41881;SDS011;27562;47.524;12.404;2023-09-19T14:48:35;1.00;;;0.50;;
41881;SDS011;27562;47.524;12.404;2023-09-19T14:51:02;1.60;;;0.65;;
41881;SDS011;27562;47.524;12.404;2023-09-19T14:53:29;1.45;;;0.57;;
41881;SDS011;27562;47.524;12.404;2023-09-19T14:55:55;1.85;;;0.80;;
41881;SDS011;27562;47.524;12.404;2023-09-19T14:58:21;1.90;;;0.68;;
41881;SDS011;27562;47.524;12.404;2023-09-19T15:00:47;1.67;;;0.70;;
41881;SDS011;27562;47.524;12.404;2023-09-19T15:03:14;1.05;;;0.47;;
41881;SDS011;27562;47.524;12.404;2023-09-19T15:05:40;1.73;;;0.90;;
41881;SDS011;27562;47.524;12.404;2023-09-19T15:08:06;1.33;;;0.50;;
41881;SDS011;27562;47.524;12.404;2023-09-19T15:10:32;1.42;;;0.60;;
41881;SDS011;27562;47.524;12.404;2023-09-19T15:12:58;1.25;;;0.60;;
41881;SDS011;27562;47.524;12.404;2023-09-19T15:15:24;2.03;;;0.80;;
41881;SDS011;27562;47.524;12.404;2023-09-19T15:17:50;0.93;;;0.50;;
41881;SDS011;27562;47.524;12.404;2023-09-19T15:20:17;3.95;;;0.70;;
41881;SDS011;27562;47.524;12.404;2023-09-19T15:22:43;1.73;;;0.70;;
41881;SDS011;27562;47.524;12.404;2023-09-19T15:25:10;1.10;;;0.50;;
41881;SDS011;27562;47.524;12.404;2023-09-19T15:27:36;1.38;;;0.63;;
41881;SDS011;27562;47.524;12.404;2023-09-19T15:30:03;1.55;;;0.80;;
41881;SDS011;27562;47.524;12.404;2023-09-19T15:32:30;2.03;;;0.70;;
41881;SDS011;27562;47.524;12.404;2023-09-19T15:34:57;1.90;;;0.85;;
41881;SDS011;27562;47.524;12.404;2023-09-19T15:37:23;2.20;;;0.77;;
41881;SDS011;27562;47.524;12.404;2023-09-19T15:39:51;1.35;;;0.50;;
41881;SDS011;27562;47.524;12.404;2023-09-19T15:42:18;1.10;;;0.50;;
41881;SDS011;27562;47.524;12.404;2023-09-19T15:44:44;1.08;;;0.60;;
41881;SDS011;27562;47.524;12.404;2023-09-19T15:47:11;2.30;;;0.50;;
41881;SDS011;27562;47.524;12.404;2023-09-19T15:49:39;1.35;;;0.70;;
41881;SDS011;27562;47.524;12.404;2023-09-19T15:52:06;7.97;;;0.63;;
41881;SDS011;27562;47.524;12.404;2023-09-19T15:54:33;2.00;;;0.57;;